createdAt,value
2018-08-03T00:00:51.677Z,18.43
2018-08-03T00:03:20.960Z,17.00
2018-08-03T00:05:49.951Z,17.20
2018-08-03T00:08:18.897Z,17.40
2018-08-03T00:10:47.769Z,16.90
2018-08-03T00:13:16.848Z,17.83
2018-08-03T00:15:45.817Z,16.33
2018-08-03T00:18:14.734Z,17.47
2018-08-03T00:20:44.915Z,17.90
2018-08-03T00:23:14.051Z,16.73
2018-08-03T00:25:42.878Z,16.80
2018-08-03T00:28:11.808Z,17.57
2018-08-03T00:30:40.807Z,17.80
2018-08-03T00:33:09.656Z,17.10
2018-08-03T00:35:38.459Z,16.37
2018-08-03T00:38:07.284Z,16.87
2018-08-03T00:40:36.575Z,16.90
2018-08-03T00:43:05.546Z,16.77
2018-08-03T00:45:34.451Z,17.97
2018-08-03T00:48:03.922Z,17.00
2018-08-03T00:50:34.287Z,17.27
2018-08-03T00:53:03.536Z,17.17
2018-08-03T00:55:32.372Z,17.00
2018-08-03T00:58:01.583Z,16.23
2018-08-03T01:00:30.823Z,17.83
2018-08-03T01:02:59.989Z,15.07
2018-08-03T01:05:28.971Z,15.33
2018-08-03T01:07:57.847Z,15.70
2018-08-03T01:10:26.783Z,17.30
2018-08-03T01:12:55.625Z,17.13
2018-08-03T01:15:24.941Z,16.80
2018-08-03T01:17:57.181Z,18.00
2018-08-03T01:20:27.241Z,16.20
2018-08-03T01:22:56.100Z,16.07
2018-08-03T01:25:26.803Z,15.03
2018-08-03T01:27:55.956Z,16.90
2018-08-03T01:30:25.172Z,16.60
2018-08-03T01:32:55.247Z,16.47
2018-08-03T01:35:24.207Z,16.60
2018-08-03T01:37:53.087Z,17.37
2018-08-03T01:40:22.054Z,16.17
2018-08-03T01:42:52.024Z,17.40
2018-08-03T01:45:21.875Z,15.30
2018-08-03T01:47:51.027Z,15.67
2018-08-03T01:50:20.116Z,15.50
2018-08-03T01:52:49.909Z,16.20
2018-08-03T01:55:19.640Z,16.73
2018-08-03T01:57:48.516Z,17.50
2018-08-03T02:00:17.599Z,18.50
2018-08-03T02:02:47.933Z,16.27
2018-08-03T02:05:16.839Z,18.57
2018-08-03T02:07:45.762Z,15.97
2018-08-03T02:10:15.249Z,16.90
2018-08-03T02:12:44.462Z,15.87
2018-08-03T02:15:13.367Z,15.90
2018-08-03T02:17:42.208Z,17.40
2018-08-03T02:20:11.175Z,16.77
2018-08-03T02:22:40.780Z,16.17
2018-08-03T02:25:09.699Z,16.53
2018-08-03T02:27:38.529Z,16.03
2018-08-03T02:30:07.421Z,16.30
2018-08-03T02:32:36.281Z,17.50
2018-08-03T02:35:05.360Z,16.43
2018-08-03T02:37:34.250Z,16.60
2018-08-03T02:40:03.303Z,17.80
2018-08-03T02:42:32.260Z,15.60
2018-08-03T02:45:01.124Z,15.63
2018-08-03T02:47:29.917Z,15.93
2018-08-03T02:49:58.677Z,16.10
2018-08-03T02:52:27.571Z,17.03
2018-08-03T02:54:56.454Z,15.57
2018-08-03T02:57:25.305Z,17.07
2018-08-03T02:59:54.174Z,16.27
2018-08-03T03:02:23.018Z,16.40
2018-08-03T03:04:51.903Z,15.97
2018-08-03T03:07:20.812Z,17.23
2018-08-03T03:09:50.061Z,16.00
2018-08-03T03:12:19.112Z,17.70
2018-08-03T03:14:48.024Z,17.00
2018-08-03T03:17:16.752Z,18.07
2018-08-03T03:19:45.703Z,16.97
2018-08-03T03:22:14.561Z,16.07
2018-08-03T03:24:44.677Z,16.50
2018-08-03T03:27:14.664Z,17.00
2018-08-03T03:29:43.744Z,16.80
2018-08-03T03:32:12.634Z,16.27
2018-08-03T03:34:41.514Z,15.47
2018-08-03T03:37:10.388Z,15.20
2018-08-03T03:39:39.149Z,16.57
2018-08-03T03:42:08.127Z,15.50
2018-08-03T03:44:36.983Z,15.30
2018-08-03T03:47:05.984Z,15.73
2018-08-03T03:49:34.864Z,16.90
2018-08-03T03:52:03.854Z,16.73
2018-08-03T03:54:32.719Z,15.43
2018-08-03T03:57:01.627Z,16.90
2018-08-03T03:59:30.522Z,16.60
2018-08-03T04:01:59.489Z,16.77
2018-08-03T04:04:28.383Z,17.43
2018-08-03T04:06:57.271Z,16.10
2018-08-03T04:09:26.034Z,16.47
2018-08-03T04:11:54.930Z,15.50
2018-08-03T04:14:23.836Z,16.43
2018-08-03T04:16:52.757Z,17.90
2018-08-03T04:19:21.695Z,17.60
2018-08-03T04:21:50.579Z,18.07
2018-08-03T04:24:19.477Z,15.73
2018-08-03T04:26:48.343Z,16.60
2018-08-03T04:29:17.245Z,17.07
2018-08-03T04:31:46.324Z,16.40
2018-08-03T04:34:15.532Z,16.07
2018-08-03T04:36:44.815Z,16.43
2018-08-03T04:39:14.120Z,17.60
2018-08-03T04:41:43.512Z,18.50
2018-08-03T04:44:12.470Z,18.47
2018-08-03T04:46:41.381Z,17.87
2018-08-03T04:49:10.164Z,17.50
2018-08-03T04:51:39.096Z,16.80
2018-08-03T04:54:08.579Z,16.40
2018-08-03T04:56:37.600Z,17.33
2018-08-03T04:59:06.487Z,16.73
2018-08-03T05:01:35.375Z,18.20
2018-08-03T05:04:05.024Z,17.97
2018-08-03T05:06:34.628Z,19.47
2018-08-03T05:09:05.411Z,18.57
2018-08-03T05:11:34.896Z,20.17
2018-08-03T05:14:04.224Z,19.30
2018-08-03T05:16:33.743Z,17.60
2018-08-03T05:19:03.205Z,18.07
2018-08-03T05:21:32.499Z,20.07
2018-08-03T05:24:01.964Z,18.20
2018-08-03T05:26:30.761Z,19.20
2018-08-03T05:28:59.858Z,19.00
2018-08-03T05:31:29.260Z,19.70
2018-08-03T05:33:58.401Z,18.57
2018-08-03T05:36:27.365Z,19.63
2018-08-03T05:38:56.260Z,17.97
2018-08-03T05:41:25.216Z,18.87
2018-08-03T05:43:54.813Z,20.97
2018-08-03T05:46:24.048Z,18.90
2018-08-03T05:48:52.919Z,20.80
2018-08-03T05:51:22.557Z,18.23
2018-08-03T05:53:51.921Z,19.70
2018-08-03T05:56:21.057Z,19.30
2018-08-03T05:58:50.312Z,18.70
2018-08-03T06:01:19.354Z,20.27
2018-08-03T06:03:48.226Z,18.73
2018-08-03T06:06:17.175Z,20.70
2018-08-03T06:08:46.043Z,17.90
2018-08-03T06:11:14.885Z,19.63
2018-08-03T06:13:43.741Z,18.23
2018-08-03T06:16:12.765Z,20.20
2018-08-03T06:18:41.680Z,19.53
2018-08-03T06:21:10.673Z,19.67
2018-08-03T06:23:39.871Z,19.57
2018-08-03T06:26:08.863Z,20.80
2018-08-03T06:28:38.297Z,21.10
2018-08-03T06:31:07.310Z,18.70
2018-08-03T06:33:36.576Z,20.23
2018-08-03T06:36:05.884Z,18.27
2018-08-03T06:38:34.878Z,20.40
2018-08-03T06:41:04.148Z,19.10
2018-08-03T06:43:33.122Z,18.17
2018-08-03T06:46:01.964Z,18.80
2018-08-03T06:48:31.371Z,19.67
2018-08-03T06:51:00.400Z,19.23
2018-08-03T06:53:29.744Z,19.93
2018-08-03T06:55:58.677Z,19.27
2018-08-03T06:58:27.593Z,20.70
2018-08-03T07:00:57.803Z,20.13
2018-08-03T07:03:26.807Z,20.60
2018-08-03T07:05:56.041Z,18.67
2018-08-03T07:08:25.227Z,19.17
2018-08-03T07:10:55.705Z,18.57
2018-08-03T07:13:24.817Z,20.03
2018-08-03T07:15:53.811Z,19.30
2018-08-03T07:18:22.683Z,20.20
2018-08-03T07:20:51.703Z,18.87
2018-08-03T07:23:20.728Z,18.17
2018-08-03T07:25:50.026Z,19.00
2018-08-03T07:28:19.213Z,16.87
2018-08-03T07:30:48.258Z,17.90
2018-08-03T07:33:17.527Z,18.10
2018-08-03T07:35:46.542Z,37.00
2018-08-03T07:38:15.775Z,19.40
2018-08-03T07:40:44.792Z,16.83
2018-08-03T07:43:13.845Z,17.77
2018-08-03T07:45:43.061Z,17.93
2018-08-03T07:48:12.106Z,18.07
2018-08-03T07:50:41.319Z,18.07
2018-08-03T07:53:10.675Z,17.07
2018-08-03T07:55:39.659Z,19.47
2018-08-03T07:58:08.911Z,17.30
2018-08-03T08:00:38.169Z,17.83
2018-08-03T08:03:06.840Z,19.87
2018-08-03T08:05:35.859Z,19.07
2018-08-03T08:08:04.824Z,19.87
2018-08-03T08:10:33.858Z,17.03
2018-08-03T08:13:02.767Z,17.80
2018-08-03T08:15:32.123Z,18.27
2018-08-03T08:18:01.021Z,16.83
2018-08-03T08:20:30.007Z,17.37
2018-08-03T08:22:59.276Z,18.10
2018-08-03T08:25:28.441Z,17.23
2018-08-03T08:27:57.439Z,17.37
2018-08-03T08:30:26.616Z,16.80
2018-08-03T08:32:55.786Z,14.37
2018-08-03T08:35:25.051Z,17.00
2018-08-03T08:37:54.280Z,16.03
2018-08-03T08:40:23.491Z,16.30
2018-08-03T08:42:53.044Z,16.17
2018-08-03T08:45:22.073Z,16.17
2018-08-03T08:47:51.010Z,16.37
2018-08-03T08:50:20.044Z,18.60
2018-08-03T08:52:48.976Z,19.87
2018-08-03T08:55:17.782Z,19.37
2018-08-03T08:57:46.727Z,16.87
2018-08-03T09:00:16.120Z,16.90
2018-08-03T09:02:45.212Z,16.07
2018-08-03T09:05:14.164Z,16.20
2018-08-03T09:07:43.909Z,18.00
2018-08-03T09:10:13.168Z,16.40
2018-08-03T09:12:42.285Z,16.77
2018-08-03T09:15:11.323Z,17.10
2018-08-03T09:17:41.406Z,14.60
2018-08-03T09:20:10.565Z,15.30
2018-08-03T09:22:39.492Z,16.60
2018-08-03T09:25:08.468Z,16.17
2018-08-03T09:27:37.407Z,15.60
2018-08-03T09:30:08.697Z,15.83
2018-08-03T09:32:38.004Z,17.43
2018-08-03T09:35:07.251Z,16.50
2018-08-03T09:37:36.704Z,16.80
2018-08-03T09:40:06.086Z,16.93
2018-08-03T09:42:35.099Z,15.50
2018-08-03T09:45:04.780Z,16.60
2018-08-03T09:47:33.757Z,16.73
2018-08-03T09:50:02.790Z,18.20
2018-08-03T09:52:31.901Z,17.07
2018-08-03T09:55:01.219Z,16.67
2018-08-03T09:57:30.365Z,17.53
2018-08-03T09:59:59.375Z,18.83
2018-08-03T10:02:28.644Z,17.90
2018-08-03T10:04:57.709Z,16.83
2018-08-03T10:07:26.763Z,18.17
2018-08-03T10:09:55.705Z,21.03
2018-08-03T10:12:25.720Z,16.93
2018-08-03T10:14:54.841Z,17.90
2018-08-03T10:17:23.975Z,19.57
2018-08-03T10:19:53.355Z,17.17
2018-08-03T10:22:22.604Z,17.23
2018-08-03T10:24:51.791Z,17.13
2018-08-03T10:27:20.814Z,14.40
2018-08-03T10:29:49.675Z,18.07
2018-08-03T10:32:19.231Z,18.10
2018-08-03T10:34:48.645Z,16.27
2018-08-03T10:37:17.481Z,15.70
2018-08-03T10:39:46.427Z,15.03
2018-08-03T10:42:15.379Z,16.20
2018-08-03T10:44:45.181Z,16.30
2018-08-03T10:47:15.341Z,18.43
2018-08-03T10:49:44.355Z,20.20
2018-08-03T10:52:14.589Z,16.93
2018-08-03T10:54:43.682Z,16.00
2018-08-03T10:57:12.837Z,16.47
2018-08-03T10:59:41.836Z,16.10
2018-08-03T11:02:14.155Z,16.90
2018-08-03T11:04:43.249Z,16.27
2018-08-03T11:07:12.340Z,15.70
2018-08-03T11:09:42.647Z,16.20
2018-08-03T11:12:11.791Z,12.50
2018-08-03T11:14:40.852Z,11.73
2018-08-03T11:17:09.771Z,12.30
2018-08-03T11:19:39.068Z,15.30
2018-08-03T11:22:08.408Z,12.00
2018-08-03T11:24:37.501Z,13.10
2018-08-03T11:27:06.777Z,13.40
2018-08-03T11:29:35.888Z,19.50
2018-08-03T11:32:05.009Z,16.70
2018-08-03T11:34:34.152Z,14.40
2018-08-03T11:37:03.288Z,11.60
2018-08-03T11:39:32.424Z,10.10
2018-08-03T11:42:01.704Z,9.20
2018-08-03T11:44:30.905Z,9.50
2018-08-03T11:46:59.802Z,7.97
2018-08-03T11:49:28.800Z,8.60
2018-08-03T11:51:58.164Z,9.07
2018-08-03T11:54:28.318Z,7.67
2018-08-03T11:56:57.552Z,8.30
2018-08-03T11:59:26.631Z,8.17
2018-08-03T12:01:57.571Z,6.87
2018-08-03T12:04:27.023Z,7.10
2018-08-03T12:06:55.936Z,6.80
2018-08-03T12:09:24.851Z,7.17
2018-08-03T12:11:53.916Z,6.30
2018-08-03T12:14:22.800Z,7.53
2018-08-03T12:16:51.695Z,7.13
2018-08-03T12:19:20.557Z,7.90
2018-08-03T12:21:49.491Z,8.10
2018-08-03T12:24:18.404Z,7.00
2018-08-03T12:26:47.295Z,8.30
2018-08-03T12:29:16.666Z,8.07
2018-08-03T12:31:48.373Z,7.90
2018-08-03T12:34:17.485Z,8.33
2018-08-03T12:36:46.294Z,7.90
2018-08-03T12:39:15.207Z,8.77
2018-08-03T12:41:44.192Z,8.90
2018-08-03T12:44:13.079Z,7.30
2018-08-03T12:46:42.975Z,7.30
2018-08-03T12:49:11.963Z,9.30
2018-08-03T12:51:41.487Z,7.80
2018-08-03T12:54:10.425Z,8.50
2018-08-03T12:56:39.821Z,8.70
2018-08-03T12:59:09.064Z,8.37
2018-08-03T13:01:38.176Z,10.60
2018-08-03T13:04:07.336Z,11.10
2018-08-03T13:06:36.252Z,10.37
2018-08-03T13:09:07.382Z,9.60
2018-08-03T13:11:36.455Z,10.53
2018-08-03T13:14:05.396Z,10.40
2018-08-03T13:16:34.372Z,10.90
2018-08-03T13:19:03.251Z,11.47
2018-08-03T13:21:35.533Z,11.40
2018-08-03T13:24:04.829Z,10.63
2018-08-03T13:26:33.813Z,11.00
2018-08-03T13:29:03.396Z,11.73
2018-08-03T13:31:32.428Z,11.77
2018-08-03T13:34:01.741Z,11.50
2018-08-03T13:36:31.535Z,12.13
2018-08-03T13:39:00.820Z,11.00
2018-08-03T13:41:30.145Z,12.37
2018-08-03T13:43:59.331Z,12.30
2018-08-03T13:46:28.523Z,11.60
2018-08-03T13:48:57.535Z,11.90
2018-08-03T13:51:26.567Z,13.50
2018-08-03T13:53:55.559Z,14.40
2018-08-03T13:56:24.988Z,13.40
2018-08-03T13:58:53.959Z,13.27
2018-08-03T14:01:37.439Z,13.40
2018-08-03T14:04:06.547Z,13.43
2018-08-03T14:06:35.734Z,13.03
2018-08-03T14:09:06.611Z,13.67
2018-08-03T14:11:35.651Z,12.87
2018-08-03T14:14:04.726Z,13.57
2018-08-03T14:16:33.634Z,13.80
2018-08-03T14:19:02.870Z,13.20
2018-08-03T14:21:32.203Z,13.10
2018-08-03T14:24:01.295Z,14.20
2018-08-03T14:26:30.263Z,13.27
2018-08-03T14:28:59.146Z,14.60
2018-08-03T14:31:28.554Z,13.97
2018-08-03T14:33:57.845Z,16.43
2018-08-03T14:36:26.756Z,14.77
2018-08-03T14:38:55.939Z,13.17
2018-08-03T14:41:25.621Z,14.07
2018-08-03T14:43:54.932Z,15.57
2018-08-03T14:46:24.165Z,13.90
2018-08-03T14:48:53.583Z,13.53
2018-08-03T14:51:23.765Z,14.43
2018-08-03T14:53:53.382Z,15.30
2018-08-03T14:56:23.352Z,13.23
2018-08-03T14:58:52.627Z,14.90
2018-08-03T15:01:22.147Z,13.87
2018-08-03T15:03:52.339Z,16.20
2018-08-03T15:06:21.810Z,16.63
2018-08-03T15:08:51.006Z,13.83
2018-08-03T15:11:20.315Z,14.20
2018-08-03T15:13:49.420Z,14.43
2018-08-03T15:16:18.336Z,15.53
2018-08-03T15:18:47.307Z,17.10
2018-08-03T15:21:18.644Z,14.47
2018-08-03T15:23:47.861Z,16.33
2018-08-03T15:26:16.927Z,18.27
2018-08-03T15:28:46.399Z,14.33
2018-08-03T15:31:17.024Z,16.77
2018-08-03T15:33:47.227Z,16.23
2018-08-03T15:36:16.567Z,16.50
2018-08-03T15:38:45.782Z,16.60
2018-08-03T15:41:14.888Z,16.57
2018-08-03T15:43:43.815Z,16.67
2018-08-03T15:46:12.744Z,15.67
2018-08-03T15:48:41.643Z,17.17
2018-08-03T15:51:10.703Z,14.20
2018-08-03T15:53:41.195Z,14.33
2018-08-03T15:56:10.017Z,16.83
2018-08-03T15:58:39.528Z,17.20
2018-08-03T16:01:08.904Z,15.33
2018-08-03T16:03:37.854Z,15.93
2018-08-03T16:06:06.784Z,17.20
2018-08-03T16:08:35.707Z,16.80
2018-08-03T16:11:05.425Z,16.00
2018-08-03T16:13:34.379Z,16.70
2018-08-03T16:16:03.195Z,16.73
2018-08-03T16:18:32.090Z,16.10
2018-08-03T16:21:01.430Z,17.53
2018-08-03T16:23:30.511Z,17.07
2018-08-03T16:26:00.613Z,17.00
2018-08-03T16:28:29.852Z,16.23
2018-08-03T16:30:58.839Z,18.40
2018-08-03T16:33:27.768Z,18.50
2018-08-03T16:35:56.671Z,17.87
2018-08-03T16:38:25.571Z,15.87
2018-08-03T16:40:54.510Z,16.43
2018-08-03T16:43:23.475Z,16.70
2018-08-03T16:45:52.391Z,16.20
2018-08-03T16:48:21.415Z,16.77
2018-08-03T16:50:50.442Z,16.30
2018-08-03T16:53:19.484Z,19.17
2018-08-03T16:55:48.412Z,16.90
2018-08-03T16:58:17.340Z,17.27
2018-08-03T17:00:46.370Z,16.50
2018-08-03T17:03:16.228Z,17.00
2018-08-03T17:05:45.172Z,16.03
2018-08-03T17:08:14.130Z,17.20
2018-08-03T17:10:43.215Z,17.50
2018-08-03T17:13:12.226Z,16.90
2018-08-03T17:15:41.096Z,17.57
2018-08-03T17:18:10.912Z,16.10
2018-08-03T17:20:40.064Z,15.90
2018-08-03T17:23:08.983Z,17.37
2018-08-03T17:25:37.899Z,16.60
2018-08-03T17:28:06.888Z,17.80
2018-08-03T17:30:35.822Z,16.40
2018-08-03T17:33:04.807Z,18.07
2018-08-03T17:35:33.698Z,17.27
2018-08-03T17:38:02.641Z,17.43
2018-08-03T17:40:31.679Z,17.57
2018-08-03T17:43:00.604Z,16.80
2018-08-03T17:45:29.430Z,16.10
2018-08-03T17:47:58.308Z,18.13
2018-08-03T17:50:27.427Z,18.27
2018-08-03T17:52:56.351Z,18.53
2018-08-03T17:55:25.282Z,15.93
2018-08-03T17:57:54.236Z,17.07
2018-08-03T18:00:24.227Z,15.70
2018-08-03T18:02:54.635Z,19.17
2018-08-03T18:05:23.973Z,18.10
2018-08-03T18:07:53.847Z,18.07
2018-08-03T18:10:23.170Z,18.30
2018-08-03T18:12:53.800Z,17.13
2018-08-03T18:15:22.788Z,18.40
2018-08-03T18:17:51.726Z,18.77
2018-08-03T18:20:22.930Z,17.77
2018-08-03T18:22:53.080Z,19.80
2018-08-03T18:25:23.035Z,17.50
2018-08-03T18:27:52.101Z,17.27
2018-08-03T18:30:21.075Z,17.63
2018-08-03T18:32:50.112Z,18.80
2018-08-03T18:35:19.104Z,17.83
2018-08-03T18:37:48.192Z,17.00
2018-08-03T18:40:17.433Z,18.73
2018-08-03T18:42:46.957Z,18.30
2018-08-03T18:45:16.373Z,17.97
2018-08-03T18:47:45.525Z,18.97
2018-08-03T18:50:14.542Z,18.83
2018-08-03T18:52:44.029Z,18.77
2018-08-03T18:55:13.584Z,18.03
2018-08-03T18:57:42.640Z,18.00
2018-08-03T19:00:12.579Z,19.50
2018-08-03T19:02:41.741Z,19.20
2018-08-03T19:05:10.783Z,20.17
2018-08-03T19:07:39.794Z,19.47
2018-08-03T19:10:08.820Z,19.33
2018-08-03T19:12:38.033Z,17.63
2018-08-03T19:15:07.670Z,18.67
2018-08-03T19:17:37.584Z,17.50
2018-08-03T19:20:07.804Z,19.03
2018-08-03T19:22:37.225Z,19.27
2018-08-03T19:25:07.388Z,18.03
2018-08-03T19:27:36.979Z,17.63
2018-08-03T19:30:06.441Z,18.23
2018-08-03T19:32:35.609Z,19.53
2018-08-03T19:35:04.788Z,18.67
2018-08-03T19:37:34.497Z,18.40
2018-08-03T19:40:04.401Z,18.90
2018-08-03T19:42:33.489Z,20.67
2018-08-03T19:45:03.217Z,18.47
2018-08-03T19:47:32.733Z,19.40
2018-08-03T19:50:02.212Z,19.73
2018-08-03T19:52:31.157Z,17.93
2018-08-03T19:55:00.083Z,21.23
2018-08-03T19:57:29.015Z,20.00
2018-08-03T19:59:57.960Z,19.47
2018-08-03T20:02:27.052Z,18.00
2018-08-03T20:04:56.399Z,19.87
2018-08-03T20:07:25.683Z,20.00
2018-08-03T20:09:55.044Z,19.00
2018-08-03T20:12:25.977Z,19.70
2018-08-03T20:14:54.690Z,22.20
2018-08-03T20:17:25.455Z,20.43
2018-08-03T20:19:55.006Z,21.23
2018-08-03T20:22:23.990Z,21.90
2018-08-03T20:24:52.787Z,20.93
2018-08-03T20:27:21.699Z,21.20
2018-08-03T20:29:50.445Z,20.00
2018-08-03T20:32:19.443Z,18.00
2018-08-03T20:34:48.327Z,20.07
2018-08-03T20:37:17.187Z,19.23
2018-08-03T20:39:46.057Z,19.60
2018-08-03T20:42:14.946Z,19.77
2018-08-03T20:44:43.925Z,19.43
2018-08-03T20:47:12.778Z,19.23
2018-08-03T20:49:41.651Z,19.87
2018-08-03T20:52:11.999Z,20.20
2018-08-03T20:54:41.962Z,20.27
2018-08-03T20:57:10.954Z,18.13
2018-08-03T20:59:39.846Z,19.63
2018-08-03T21:02:08.810Z,22.00
2018-08-03T21:04:37.713Z,18.17
2018-08-03T21:07:06.615Z,19.47
2018-08-03T21:09:35.494Z,18.87
2018-08-03T21:12:04.465Z,19.20
2018-08-03T21:14:33.209Z,19.73
2018-08-03T21:17:02.063Z,18.43
2018-08-03T21:19:30.883Z,19.50
2018-08-03T21:21:59.784Z,19.40
2018-08-03T21:24:28.665Z,20.43
2018-08-03T21:26:57.581Z,20.43
2018-08-03T21:29:26.424Z,18.67
2018-08-03T21:31:55.344Z,20.07
2018-08-03T21:34:24.180Z,19.70
2018-08-03T21:36:53.022Z,18.93
2018-08-03T21:39:21.863Z,19.90
2018-08-03T21:41:50.795Z,21.00
2018-08-03T21:44:19.675Z,18.37
2018-08-03T21:46:48.530Z,18.30
2018-08-03T21:49:17.419Z,20.43
2018-08-03T21:51:46.359Z,20.23
2018-08-03T21:54:15.171Z,16.77
2018-08-03T21:56:44.043Z,18.80
2018-08-03T21:59:12.920Z,20.10
2018-08-03T22:01:41.903Z,17.93
2018-08-03T22:04:10.811Z,19.57
2018-08-03T22:06:39.651Z,17.53
2018-08-03T22:09:09.543Z,18.73
2018-08-03T22:11:38.374Z,17.97
2018-08-03T22:14:07.259Z,17.20
2018-08-03T22:16:36.103Z,19.00
2018-08-03T22:19:04.956Z,18.70
2018-08-03T22:21:33.875Z,17.83
2018-08-03T22:24:02.687Z,18.60
2018-08-03T22:26:31.599Z,19.07
2018-08-03T22:29:00.462Z,18.53
2018-08-03T22:31:29.417Z,17.93
2018-08-03T22:33:58.447Z,18.53
2018-08-03T22:36:27.284Z,18.77
2018-08-03T22:38:56.278Z,19.30
2018-08-03T22:41:25.288Z,17.70
2018-08-03T22:43:54.140Z,18.07
2018-08-03T22:46:22.938Z,19.23
2018-08-03T22:48:51.747Z,17.63
2018-08-03T22:51:20.659Z,19.40
2018-08-03T22:53:49.531Z,17.77
2018-08-03T22:56:18.356Z,16.80
2018-08-03T22:58:47.254Z,18.20
2018-08-03T23:01:16.101Z,18.30
2018-08-03T23:03:44.950Z,18.13
2018-08-03T23:06:13.841Z,17.73
2018-08-03T23:08:42.691Z,18.90
2018-08-03T23:11:11.759Z,16.93
2018-08-03T23:13:40.621Z,17.43
2018-08-03T23:16:09.488Z,18.00
2018-08-03T23:18:38.355Z,19.17
2018-08-03T23:21:07.245Z,18.93
2018-08-03T23:23:36.075Z,16.77
2018-08-03T23:26:04.837Z,16.57
2018-08-03T23:28:33.699Z,19.03
2018-08-03T23:31:02.627Z,15.93
2018-08-03T23:33:31.490Z,17.90
2018-08-03T23:36:00.340Z,18.40
2018-08-03T23:38:29.167Z,18.30
2018-08-03T23:40:58.071Z,17.80
2018-08-03T23:43:26.899Z,16.20
2018-08-03T23:45:55.800Z,18.90
2018-08-03T23:48:24.639Z,17.13
2018-08-03T23:50:53.658Z,18.90
2018-08-03T23:53:22.389Z,17.87
2018-08-03T23:55:51.255Z,18.00
2018-08-03T23:58:20.091Z,17.00
